createdAt,value
2023-03-26T00:01:26.713Z,1.90
2023-03-26T00:03:58.083Z,2.00
2023-03-26T00:06:30.386Z,2.60
2023-03-26T00:08:58.152Z,2.50
2023-03-26T00:11:27.812Z,2.90
2023-03-26T00:13:57.825Z,2.60
2023-03-26T00:16:27.129Z,3.40
2023-03-26T00:18:54.143Z,3.90
2023-03-26T00:21:27.854Z,3.00
2023-03-26T00:23:59.976Z,2.70
2023-03-26T00:26:29.795Z,3.10
2023-03-26T00:28:57.805Z,3.00
2023-03-26T00:31:24.964Z,3.80
2023-03-26T00:33:57.029Z,3.30
2023-03-26T00:36:26.845Z,3.00
2023-03-26T00:38:54.416Z,3.50
2023-03-26T00:41:25.103Z,4.40
2023-03-26T00:43:56.410Z,3.20
2023-03-26T00:46:25.099Z,3.40
2023-03-26T00:48:52.228Z,4.20
2023-03-26T00:51:20.803Z,3.80
2023-03-26T00:53:49.515Z,4.70
2023-03-26T00:56:17.080Z,3.70
2023-03-26T00:58:44.092Z,3.80
2023-03-26T01:01:13.958Z,3.70
2023-03-26T01:03:50.159Z,4.10
2023-03-26T01:06:28.206Z,4.60
2023-03-26T01:09:00.507Z,4.20
2023-03-26T01:11:30.857Z,3.80
2023-03-26T01:14:02.553Z,4.60
2023-03-26T01:16:50.057Z,5.50
2023-03-26T01:19:40.836Z,4.50
2023-03-26T01:22:11.279Z,5.20
2023-03-26T01:24:41.950Z,5.10
2023-03-26T01:27:18.002Z,4.90
2023-03-26T01:29:55.772Z,4.90
2023-03-26T01:32:39.457Z,4.70
2023-03-26T01:35:17.565Z,5.60
2023-03-26T01:38:12.090Z,5.00
2023-03-26T01:40:43.377Z,5.90
2023-03-26T01:43:17.452Z,5.50
2023-03-26T01:45:46.460Z,5.20
2023-03-26T01:48:13.713Z,4.90
2023-03-26T01:50:40.560Z,4.20
2023-03-26T01:53:09.092Z,5.20
2023-03-26T01:55:49.650Z,5.00
2023-03-26T01:58:27.296Z,6.00
2023-03-26T02:01:27.261Z,4.90
2023-03-26T02:04:21.769Z,4.70
2023-03-26T02:07:02.174Z,6.10
2023-03-26T02:09:32.304Z,5.30
2023-03-26T02:11:59.715Z,5.60
2023-03-26T02:14:29.664Z,5.00
2023-03-26T02:16:57.303Z,5.10
2023-03-26T02:19:24.852Z,5.80
2023-03-26T02:21:51.627Z,6.20
2023-03-26T02:24:19.979Z,5.70
2023-03-26T02:26:46.829Z,5.10
2023-03-26T02:29:14.939Z,6.50
2023-03-26T02:31:44.286Z,6.10
2023-03-26T02:34:11.464Z,6.10
2023-03-26T02:36:38.311Z,5.30
2023-03-26T02:39:05.573Z,5.70
2023-03-26T02:41:32.513Z,6.10
2023-03-26T02:43:59.254Z,6.70
2023-03-26T02:46:26.251Z,5.90
2023-03-26T02:48:53.083Z,6.10
2023-03-26T02:51:20.262Z,6.40
2023-03-26T02:53:47.676Z,6.20
2023-03-26T02:56:14.523Z,6.20
2023-03-26T02:58:41.365Z,6.50
2023-03-26T03:01:08.198Z,6.80
2023-03-26T03:03:36.496Z,6.80
2023-03-26T03:06:03.495Z,5.60
2023-03-26T03:08:32.446Z,6.40
2023-03-26T03:11:01.406Z,5.60
2023-03-26T03:13:28.699Z,6.90
2023-03-26T03:15:56.313Z,6.70
2023-03-26T03:18:23.430Z,7.70
2023-03-26T03:20:50.480Z,7.10
2023-03-26T03:23:17.944Z,6.70
2023-03-26T03:25:47.226Z,7.10
2023-03-26T03:28:14.179Z,8.30
2023-03-26T03:30:41.889Z,7.40
2023-03-26T03:33:08.931Z,8.00
2023-03-26T03:35:35.890Z,8.10
2023-03-26T03:38:02.613Z,7.10
2023-03-26T03:40:29.443Z,7.10
2023-03-26T03:42:56.500Z,6.80
2023-03-26T03:45:23.331Z,7.10
2023-03-26T03:47:50.111Z,6.40
2023-03-26T03:50:17.143Z,6.60
2023-03-26T03:52:43.916Z,8.90
2023-03-26T03:55:10.790Z,6.60
2023-03-26T03:57:37.691Z,6.90
2023-03-26T04:00:06.982Z,6.30
2023-03-26T04:02:36.418Z,6.40
2023-03-26T04:05:07.430Z,6.60
2023-03-26T04:07:34.306Z,6.60
2023-03-26T04:10:03.183Z,6.10
2023-03-26T04:12:31.145Z,7.10
2023-03-26T04:14:58.806Z,5.80
2023-03-26T04:17:26.206Z,5.40
2023-03-26T04:19:53.143Z,6.90
2023-03-26T04:22:20.066Z,6.40
2023-03-26T04:24:48.953Z,5.60
2023-03-26T04:27:19.821Z,5.60
2023-03-26T04:29:49.724Z,4.70
2023-03-26T04:32:22.839Z,5.30
2023-03-26T04:34:49.764Z,5.70
2023-03-26T04:37:39.952Z,5.30
2023-03-26T04:40:10.315Z,4.90
2023-03-26T04:42:41.842Z,6.10
2023-03-26T04:45:10.933Z,5.60
2023-03-26T04:47:39.199Z,4.90
2023-03-26T04:50:08.340Z,5.60
2023-03-26T04:52:35.450Z,4.20
2023-03-26T04:55:02.400Z,5.70
2023-03-26T04:57:36.746Z,4.20
2023-03-26T05:00:15.254Z,5.10
2023-03-26T05:02:42.954Z,5.30
2023-03-26T05:05:10.542Z,4.50
2023-03-26T05:07:37.636Z,4.10
2023-03-26T05:10:06.377Z,5.40
2023-03-26T05:12:33.197Z,4.50
2023-03-26T05:15:00.114Z,4.10
2023-03-26T05:17:30.908Z,4.90
2023-03-26T05:19:57.985Z,4.20
2023-03-26T05:22:24.836Z,5.20
2023-03-26T05:24:52.391Z,4.10
2023-03-26T05:27:22.295Z,4.30
2023-03-26T05:29:49.068Z,4.60
2023-03-26T05:32:16.114Z,4.70
2023-03-26T05:34:45.509Z,4.50
2023-03-26T05:37:12.209Z,4.40
2023-03-26T05:39:39.210Z,4.90
2023-03-26T05:42:08.025Z,5.60
2023-03-26T05:44:35.263Z,4.50
2023-03-26T05:47:02.002Z,5.10
2023-03-26T05:49:28.854Z,4.30
2023-03-26T05:51:55.762Z,4.50
2023-03-26T05:54:22.425Z,5.00
2023-03-26T05:56:49.396Z,4.50
2023-03-26T05:59:16.647Z,5.70
2023-03-26T06:01:45.988Z,5.60
2023-03-26T06:04:16.141Z,3.90
2023-03-26T06:06:44.942Z,4.50
2023-03-26T06:09:14.886Z,4.70
2023-03-26T06:11:42.004Z,3.60
2023-03-26T06:14:08.868Z,4.20
2023-03-26T06:16:35.693Z,4.40
2023-03-26T06:19:02.594Z,4.30
2023-03-26T06:21:29.527Z,4.20
2023-03-26T06:23:56.306Z,4.70
2023-03-26T06:26:23.223Z,4.40
2023-03-26T06:28:50.042Z,4.20
2023-03-26T06:31:19.397Z,5.00
2023-03-26T06:33:47.040Z,4.90
2023-03-26T06:36:14.047Z,5.70
2023-03-26T06:38:44.114Z,4.80
2023-03-26T06:41:11.161Z,5.40
2023-03-26T06:43:39.186Z,5.40
2023-03-26T06:46:06.521Z,4.30
2023-03-26T06:48:33.556Z,4.40
2023-03-26T06:51:00.375Z,5.00
2023-03-26T06:53:27.390Z,4.50
2023-03-26T06:55:54.808Z,4.80
2023-03-26T06:58:22.573Z,3.90
2023-03-26T07:00:53.722Z,4.40
2023-03-26T07:03:21.161Z,4.70
2023-03-26T07:05:47.910Z,4.70
2023-03-26T07:08:15.597Z,4.10
2023-03-26T07:10:42.547Z,4.50
2023-03-26T07:13:11.943Z,4.40
2023-03-26T07:15:38.910Z,5.00
2023-03-26T07:18:06.294Z,4.40
2023-03-26T07:20:34.011Z,4.40
2023-03-26T07:23:03.718Z,4.50
2023-03-26T07:25:31.305Z,3.90
2023-03-26T07:27:58.150Z,4.10
2023-03-26T07:30:31.855Z,5.10
2023-03-26T07:32:58.777Z,4.50
2023-03-26T07:35:40.394Z,5.40
2023-03-26T07:38:44.782Z,4.10
2023-03-26T07:41:41.252Z,3.80
2023-03-26T07:44:27.810Z,5.00
2023-03-26T07:46:55.167Z,4.90
2023-03-26T07:49:22.361Z,5.60
2023-03-26T07:51:49.732Z,4.70
2023-03-26T07:54:17.047Z,5.20
2023-03-26T07:56:58.856Z,4.70
2023-03-26T07:59:44.746Z,5.20
2023-03-26T08:02:32.983Z,4.70
2023-03-26T08:05:03.059Z,5.00
2023-03-26T08:07:45.241Z,4.40
2023-03-26T08:10:33.831Z,4.00
2023-03-26T08:13:45.812Z,4.30
2023-03-26T08:16:19.384Z,3.90
2023-03-26T08:18:52.575Z,4.10
2023-03-26T08:21:25.298Z,4.70
2023-03-26T08:24:01.229Z,4.60
2023-03-26T08:26:44.237Z,4.10
2023-03-26T08:29:29.437Z,3.90
2023-03-26T08:31:57.664Z,5.00
2023-03-26T08:34:24.410Z,5.20
2023-03-26T08:36:53.409Z,4.70
2023-03-26T08:39:22.499Z,3.80
2023-03-26T08:41:54.454Z,4.20
2023-03-26T08:45:15.964Z,3.30
2023-03-26T08:48:08.251Z,3.70
2023-03-26T08:50:58.239Z,3.10
2023-03-26T08:53:54.500Z,3.70
2023-03-26T08:56:24.408Z,3.90
2023-03-26T08:58:51.349Z,5.20
2023-03-26T09:01:40.984Z,3.60
2023-03-26T09:04:07.923Z,4.00
2023-03-26T09:06:58.316Z,3.80
2023-03-26T09:09:53.961Z,3.80
2023-03-26T09:12:29.903Z,4.10
2023-03-26T09:15:11.689Z,4.40
2023-03-26T09:18:17.111Z,3.40
2023-03-26T09:21:02.903Z,3.30
2023-03-26T09:24:14.358Z,3.40
2023-03-26T09:26:59.740Z,3.60
2023-03-26T09:29:41.935Z,3.30
2023-03-26T09:32:43.369Z,3.80
2023-03-26T09:35:13.746Z,3.70
2023-03-26T09:37:57.375Z,3.20
2023-03-26T09:40:37.413Z,3.40
2023-03-26T09:43:23.201Z,4.40
2023-03-26T09:46:15.042Z,3.50
2023-03-26T09:49:02.174Z,3.20
2023-03-26T09:51:44.179Z,3.90
2023-03-26T09:54:32.029Z,3.20
2023-03-26T09:57:37.749Z,3.20
2023-03-26T10:00:17.820Z,3.00
2023-03-26T10:02:46.937Z,3.40
2023-03-26T10:05:42.911Z,3.30
2023-03-26T10:08:37.149Z,3.20
2023-03-26T10:11:38.394Z,2.90
2023-03-26T10:14:23.448Z,2.80
2023-03-26T10:17:21.925Z,3.50
2023-03-26T10:19:58.227Z,2.80
2023-03-26T10:22:46.501Z,3.90
2023-03-26T10:25:48.135Z,2.80
2023-03-26T10:28:37.643Z,2.50
2023-03-26T10:31:25.962Z,2.80
2023-03-26T10:34:06.510Z,3.00
2023-03-26T10:36:33.283Z,3.30
2023-03-26T10:39:11.942Z,2.50
2023-03-26T10:42:11.086Z,2.70
2023-03-26T10:45:00.732Z,3.10
2023-03-26T10:48:12.250Z,4.00
2023-03-26T10:50:53.484Z,2.90
2023-03-26T10:53:27.290Z,3.10
2023-03-26T10:55:56.784Z,3.10
2023-03-26T10:58:27.816Z,4.00
2023-03-26T11:01:16.597Z,3.40
2023-03-26T11:03:43.989Z,3.00
2023-03-26T11:06:25.876Z,3.40
2023-03-26T11:09:14.686Z,2.40
2023-03-26T11:12:26.494Z,2.40
2023-03-26T11:15:03.733Z,2.30
2023-03-26T11:17:40.917Z,2.90
2023-03-26T11:20:21.171Z,3.50
2023-03-26T11:22:57.227Z,4.90
2023-03-26T11:25:42.470Z,4.00
2023-03-26T11:28:31.146Z,4.60
2023-03-26T11:31:16.440Z,5.20
2023-03-26T11:33:47.749Z,6.60
2023-03-26T11:36:23.855Z,6.50
2023-03-26T11:38:51.587Z,6.40
2023-03-26T11:41:31.220Z,6.20
2023-03-26T11:44:03.079Z,6.10
2023-03-26T11:46:33.739Z,6.50
2023-03-26T11:49:07.753Z,5.80
2023-03-26T11:51:36.264Z,6.20
2023-03-26T11:54:04.898Z,5.30
2023-03-26T11:56:35.057Z,6.00
2023-03-26T11:59:06.196Z,6.10
2023-03-26T12:01:53.244Z,5.90
2023-03-26T12:04:28.196Z,6.30
2023-03-26T12:07:00.345Z,6.20
2023-03-26T12:09:27.458Z,7.00
2023-03-26T12:12:00.301Z,5.60
2023-03-26T12:14:30.018Z,5.10
2023-03-26T12:17:02.982Z,5.80
2023-03-26T12:19:41.777Z,5.60
2023-03-26T12:22:37.440Z,6.60
2023-03-26T12:25:21.273Z,6.00
2023-03-26T12:27:58.836Z,6.50
2023-03-26T12:30:31.305Z,5.10
2023-03-26T12:33:04.933Z,6.00
2023-03-26T12:35:34.994Z,5.80
2023-03-26T12:38:40.736Z,5.40
2023-03-26T12:44:44.987Z,5.30
2023-03-26T12:44:48.007Z,4.90
2023-03-26T12:47:59.919Z,3.80
2023-03-26T12:50:15.340Z,4.30
2023-03-26T12:52:57.635Z,3.60
2023-03-26T12:55:38.978Z,4.80
2023-03-26T12:58:20.201Z,3.40
2023-03-26T13:00:51.510Z,3.70
2023-03-26T13:03:57.049Z,3.20
2023-03-26T13:07:00.375Z,3.80
2023-03-26T13:09:44.388Z,3.80
2023-03-26T13:12:15.562Z,4.10
2023-03-26T13:15:23.886Z,3.20
2023-03-26T13:18:11.880Z,3.40
2023-03-26T13:20:55.096Z,3.50
2023-03-26T13:23:36.035Z,3.30
2023-03-26T13:26:24.572Z,3.40
2023-03-26T13:29:10.452Z,3.70
2023-03-26T13:31:44.254Z,3.10
2023-03-26T13:34:22.877Z,3.50
2023-03-26T13:37:15.966Z,2.90
2023-03-26T13:39:56.783Z,2.40
2023-03-26T13:42:36.834Z,3.40
2023-03-26T13:45:29.772Z,3.30
2023-03-26T13:47:57.709Z,2.80
2023-03-26T13:50:28.828Z,2.40
2023-03-26T13:53:13.606Z,2.50
2023-03-26T13:58:41.420Z,2.70
2023-03-26T14:01:16.898Z,2.60
2023-03-26T14:04:01.226Z,2.80
2023-03-26T14:06:36.154Z,2.50
2023-03-26T14:09:13.221Z,2.40
2023-03-26T14:11:52.151Z,2.70
2023-03-26T14:14:48.507Z,2.60
2023-03-26T14:17:39.139Z,2.70
2023-03-26T14:20:27.467Z,2.40
2023-03-26T14:23:18.589Z,2.10
2023-03-26T14:26:15.527Z,2.70
2023-03-26T14:28:53.940Z,2.60
2023-03-26T14:31:39.752Z,2.00
2023-03-26T14:34:19.561Z,2.30
2023-03-26T14:37:14.034Z,2.60
2023-03-26T14:40:01.560Z,2.00
2023-03-26T14:42:47.128Z,2.00
2023-03-26T14:45:38.934Z,2.10
2023-03-26T14:48:24.273Z,2.40
2023-03-26T14:51:13.372Z,1.70
2023-03-26T14:53:47.405Z,1.70
2023-03-26T14:56:26.192Z,1.90
2023-03-26T14:59:27.779Z,2.00
2023-03-26T15:02:25.983Z,2.80
2023-03-26T15:05:24.813Z,2.10
2023-03-26T15:07:51.623Z,2.10
2023-03-26T15:10:56.065Z,1.90
2023-03-26T15:14:02.075Z,2.40
2023-03-26T15:17:08.327Z,2.00
2023-03-26T15:20:09.273Z,2.80
2023-03-26T15:22:54.209Z,2.00
2023-03-26T15:25:52.351Z,1.90
2023-03-26T15:28:19.286Z,1.50
2023-03-26T15:31:23.545Z,2.50
2023-03-26T15:34:08.457Z,2.30
2023-03-26T15:39:59.326Z,2.80
2023-03-26T15:42:38.412Z,1.70
2023-03-26T15:45:42.553Z,2.10
2023-03-26T15:48:12.482Z,1.80
2023-03-26T15:51:14.239Z,1.60
2023-03-26T15:54:07.756Z,1.80
2023-03-26T15:57:03.904Z,2.20
2023-03-26T15:59:43.389Z,2.70
2023-03-26T16:02:34.958Z,1.80
2023-03-26T16:05:39.270Z,2.00
2023-03-26T16:08:39.791Z,1.80
2023-03-26T16:11:12.897Z,2.10
2023-03-26T16:14:12.645Z,2.00
2023-03-26T16:16:54.129Z,2.10
2023-03-26T16:19:21.733Z,2.00
2023-03-26T16:22:07.629Z,2.00
2023-03-26T16:24:38.217Z,1.70
2023-03-26T16:27:29.961Z,2.40
2023-03-26T16:30:28.009Z,2.10
2023-03-26T16:32:58.857Z,1.60
2023-03-26T16:35:54.230Z,1.70
2023-03-26T16:38:25.053Z,1.70
2023-03-26T16:41:01.776Z,1.50
2023-03-26T16:43:48.763Z,1.70
2023-03-26T16:46:44.742Z,1.70
2023-03-26T16:49:39.246Z,1.90
2023-03-26T16:52:09.880Z,2.00
2023-03-26T16:54:46.240Z,1.80
2023-03-26T16:57:23.142Z,2.00
2023-03-26T17:00:04.584Z,1.60
2023-03-26T17:02:56.997Z,2.20
2023-03-26T17:05:38.088Z,2.00
2023-03-26T17:08:36.037Z,1.60
2023-03-26T17:11:15.276Z,1.80
2023-03-26T17:14:03.835Z,1.40
2023-03-26T17:17:09.330Z,2.20
2023-03-26T17:19:44.321Z,1.90
2023-03-26T17:22:16.864Z,1.50
2023-03-26T17:24:52.085Z,1.70
2023-03-26T17:27:34.106Z,1.80
2023-03-26T17:30:30.819Z,1.80
2023-03-26T17:33:03.779Z,1.70
2023-03-26T17:35:37.224Z,1.60
2023-03-26T17:38:08.199Z,1.50
2023-03-26T17:40:56.255Z,1.90
2023-03-26T17:43:53.718Z,1.90
2023-03-26T17:46:38.201Z,1.20
2023-03-26T17:49:12.603Z,1.30
2023-03-26T17:51:57.350Z,1.60
2023-03-26T17:54:57.238Z,1.30
2023-03-26T17:57:44.350Z,0.90
2023-03-26T18:00:27.686Z,1.30
2023-03-26T18:03:04.170Z,1.70
2023-03-26T18:05:31.834Z,1.70
2023-03-26T18:08:34.122Z,1.70
2023-03-26T18:11:23.878Z,1.30
2023-03-26T18:14:22.544Z,1.40
2023-03-26T18:16:52.678Z,1.80
2023-03-26T18:19:22.851Z,1.10
2023-03-26T18:21:54.223Z,1.20
2023-03-26T18:24:31.562Z,2.00
2023-03-26T18:27:02.650Z,1.90
2023-03-26T18:29:31.644Z,2.20
2023-03-26T18:32:00.833Z,1.10
2023-03-26T18:34:33.228Z,1.50
2023-03-26T18:37:03.019Z,1.40
2023-03-26T18:39:29.865Z,1.40
2023-03-26T18:41:58.356Z,1.70
2023-03-26T18:44:25.509Z,1.60
2023-03-26T18:46:55.069Z,1.40
2023-03-26T18:49:22.831Z,1.20
2023-03-26T18:51:56.673Z,2.10
2023-03-26T18:54:24.960Z,1.10
2023-03-26T18:56:52.803Z,1.10
2023-03-26T18:59:28.447Z,1.80
2023-03-26T19:01:59.322Z,1.20
2023-03-26T19:04:31.286Z,1.40
2023-03-26T19:06:58.440Z,1.60
2023-03-26T19:09:32.066Z,1.20
2023-03-26T19:12:08.375Z,1.40
2023-03-26T19:14:51.628Z,1.40
2023-03-26T19:17:18.696Z,1.80
2023-03-26T19:19:45.633Z,1.10
2023-03-26T19:22:16.394Z,1.30
2023-03-26T19:24:43.464Z,1.70
2023-03-26T19:27:10.666Z,1.60
2023-03-26T19:29:37.522Z,1.60
2023-03-26T19:32:20.574Z,1.30
2023-03-26T19:34:51.988Z,1.70
2023-03-26T19:37:25.271Z,1.40
2023-03-26T19:39:55.099Z,1.60
2023-03-26T19:42:26.660Z,2.50
2023-03-26T19:44:54.215Z,1.70
2023-03-26T19:47:35.389Z,1.40
2023-03-26T19:50:31.431Z,1.70
2023-03-26T19:53:18.655Z,1.80
2023-03-26T19:56:04.504Z,1.80
2023-03-26T19:58:32.980Z,1.50
2023-03-26T20:01:00.010Z,1.50
2023-03-26T20:03:40.391Z,1.40
2023-03-26T20:06:11.998Z,1.60
2023-03-26T20:08:40.660Z,2.00
2023-03-26T20:11:15.589Z,1.40
2023-03-26T20:13:42.516Z,1.50
2023-03-26T20:16:18.295Z,1.70
2023-03-26T20:18:45.214Z,1.30
2023-03-26T20:21:12.891Z,1.70
2023-03-26T20:23:40.953Z,1.70
2023-03-26T20:26:12.621Z,1.80
2023-03-26T20:28:47.731Z,1.80
2023-03-26T20:31:33.595Z,1.80
2023-03-26T20:34:00.800Z,1.40
2023-03-26T20:36:34.127Z,1.80
2023-03-26T20:39:08.080Z,1.50
2023-03-26T20:41:36.058Z,1.40
2023-03-26T20:44:05.019Z,1.90
2023-03-26T20:46:33.568Z,1.60
2023-03-26T20:49:00.402Z,1.50
2023-03-26T20:51:30.190Z,1.40
2023-03-26T20:53:56.915Z,1.80
2023-03-26T20:56:23.986Z,1.20
2023-03-26T20:59:03.635Z,1.30
2023-03-26T21:01:34.876Z,1.60
2023-03-26T21:04:04.498Z,1.30
2023-03-26T21:06:31.774Z,1.70
2023-03-26T21:08:59.374Z,1.30
2023-03-26T21:11:46.738Z,1.60
2023-03-26T21:14:26.171Z,1.50
2023-03-26T21:16:53.554Z,1.40
2023-03-26T21:19:21.290Z,1.30
2023-03-26T21:21:56.210Z,1.40
2023-03-26T21:24:48.272Z,1.30
2023-03-26T21:27:39.948Z,1.70
2023-03-26T21:30:13.855Z,1.20
2023-03-26T21:32:41.615Z,1.30
2023-03-26T21:35:09.377Z,1.50
2023-03-26T21:37:37.777Z,1.50
2023-03-26T21:40:14.970Z,1.40
2023-03-26T21:42:47.277Z,1.40
2023-03-26T21:45:14.877Z,1.30
2023-03-26T21:47:42.473Z,1.10
2023-03-26T21:50:11.985Z,1.40
2023-03-26T21:52:47.134Z,1.40
2023-03-26T21:55:21.571Z,1.40
2023-03-26T21:57:54.713Z,2.50
2023-03-26T22:00:33.597Z,1.50
2023-03-26T22:03:41.766Z,1.50
2023-03-26T22:06:31.505Z,1.30
2023-03-26T22:08:59.704Z,2.00
2023-03-26T22:11:26.574Z,1.40
2023-03-26T22:13:55.726Z,1.90
2023-03-26T22:16:25.534Z,1.40
2023-03-26T22:18:54.021Z,1.20
2023-03-26T22:21:23.591Z,1.50
2023-03-26T22:23:54.213Z,1.20
2023-03-26T22:26:23.370Z,1.60
2023-03-26T22:28:50.831Z,1.20
2023-03-26T22:31:17.851Z,1.30
2023-03-26T22:33:44.658Z,1.60
2023-03-26T22:36:22.943Z,1.50
2023-03-26T22:38:53.778Z,1.30
2023-03-26T22:41:21.849Z,1.00
2023-03-26T22:43:52.018Z,2.00
2023-03-26T22:46:19.690Z,1.40
2023-03-26T22:48:48.434Z,1.20
2023-03-26T22:51:16.292Z,0.90
2023-03-26T22:53:43.782Z,1.30
2023-03-26T22:56:13.528Z,1.00
2023-03-26T22:58:40.622Z,1.20
2023-03-26T23:01:25.228Z,1.40
2023-03-26T23:03:55.058Z,1.40
2023-03-26T23:06:21.958Z,1.20
2023-03-26T23:08:49.087Z,1.10
2023-03-26T23:11:18.431Z,1.20
2023-03-26T23:13:46.464Z,1.10
2023-03-26T23:16:14.690Z,1.60
2023-03-26T23:18:41.696Z,1.10
2023-03-26T23:21:14.976Z,1.70
2023-03-26T23:23:42.564Z,1.40
2023-03-26T23:26:09.511Z,1.40
2023-03-26T23:28:38.350Z,1.50
2023-03-26T23:31:07.531Z,1.50
2023-03-26T23:33:38.676Z,1.50
2023-03-26T23:36:09.239Z,1.20
2023-03-26T23:38:44.145Z,1.40
2023-03-26T23:41:15.510Z,1.60
2023-03-26T23:43:54.216Z,0.90
2023-03-26T23:46:30.984Z,1.10
2023-03-26T23:49:04.243Z,1.20
2023-03-26T23:51:31.774Z,1.30
2023-03-26T23:53:59.949Z,0.80
2023-03-26T23:56:30.205Z,1.30
2023-03-26T23:58:58.310Z,1.50
